Airfield :
LOGIN :

Register | Disclaimer

   EN    FR    IT 

 










Legend :    VFR   Marginal VFR   IFR   Intensive IFR   Very Intensive IFR
Visi :
Ceiling :
>= 8 km
>= 3000ft
5 to 8 km
1000 to 3000 ft
1500m to 5 km
500 to 1000 ft
800 to 1500m
200 to 500 ft
< 800m
< 200 ft
Symbols :   Thunderstorms  Fog  Heavy snow  Heavy precipitations  Wind > 20 kt
SIGMETs :     Misc.  Thunderstorms  Icing  Turbulence  Mountain Waves  Volcanic Ashes






- Airport Elevation : 364 ft
- IATA code : FRA


EDDF - Frankfurt Int.

CURRENT METAR :
  • 031350Z 17007KT 140V200 9999 FEW020CB SCT028 21/14 Q1012 NOSIG

EXPIRED METARs :
  • 031320Z 20009KT 170V240 9999 FEW020 SCT025 20/13 Q1012 NOSIG
  • 031250Z 19008KT 140V230 9999 FEW015 SCT020 19/13 Q1013 NOSIG
  • 031220Z 20008KT 170V230 9999 FEW008 FEW015CB SCT020 20/14 Q1013 NOSIG
  • 031150Z 21010KT 170V230 9999 FEW006 FEW012CB SCT019 18/14 Q1013 NOSIG
  • 031120Z 18010KT 160V220 9999 VCSH FEW006 FEW012CB SCT018 17/14 Q1013 NOSIG

TAF TAF EDDF
Valid from the 03 at 12:00 until the 04 at 18:00 UTC


031100Z 0312/0418 20009KT 9999 SCT040
TEMPO 0312/0321 SHRA BKN030CB
PROB30
TEMPO 0312/0314 24015G25KT 4000 TSRA BKN012 BKN020CB
PROB30
TEMPO 0314/0318 24015G25KT 4000 TSRA BKN020CB
BECMG 0319/0321 19004KT
PROB30
TEMPO 0402/0406 3000 BR BKN005
TEMPO 0406/0409 BKN012
PROB30
TEMPO 0411/0416 SHRA BKN030TCU



MET'MAP, your aeronautical weather chart ! - Copyright ORBIFLY December 2007 - Disclaimer

ORBIFLY MET'MAP TEAM :

Programming & Development : Alexandra Zaïnal
Concept & original design : Baudouin d'Aumeries
Assistance for programming : Marc-Olivier Méhu
Technical & hardware support : Manuel Goepfert

Contact : metmap@orbifly.com




SOURCES & CREDITS :

   NOAA